Time;durP1;ratioP1;P1;durP2;ratioP2;P2;SDS_P1;SDS_P2;PMS_P1;PMS_P2;Temp;Humidity;BMP_temperature;BMP_pressure;BME280_temperature;BME280_humidity;BME280_pressure;Samples;Min_cycle;Max_cycle;Signal;HPM_P1;HPM_P2
2022/12/15 00:40:10;;;;;;;38.50;27.85;;;;;;;-7.78;100.00;158560.34;5053138;28;20047;-62
2022/12/15 00:42:35;;;;;;;52.28;29.88;;;;;;;-7.72;100.00;158576.34;5051948;28;20037;-62
2022/12/15 00:45:01;;;;;;;44.70;27.05;;;;;;;-7.64;100.00;158596.31;5053208;28;20045;-62
2022/12/15 00:47:26;;;;;;;41.78;26.60;;;;;;;-7.58;100.00;158611.00;5044161;28;20045;-63
2022/12/15 01:20:12;;;;;;;34.40;22.63;;;;;;;-7.28;100.00;158688.28;5032937;28;20502;-62
2022/12/15 01:22:38;;;;;;;36.97;26.23;;;;;;;-7.30;100.00;158682.94;5031410;28;20052;-62
2022/12/15 01:25:06;;;;;;;30.55;21.55;;;;;;;-7.30;100.00;158682.94;5030970;28;20032;-62
2022/12/15 01:27:31;;;;;;;34.65;24.77;;;;;;;-7.29;100.00;158685.59;5031093;28;20041;-62
2022/12/15 01:29:56;;;;;;;33.08;23.08;;;;;;;-7.27;100.00;158692.25;5032375;28;20029;-61
2022/12/15 01:32:22;;;;;;;32.40;21.20;;;;;;;-7.25;100.00;158696.22;5030607;28;20539;-62
2022/12/15 01:34:48;;;;;;;38.05;22.70;;;;;;;-7.24;100.00;158700.28;5034439;28;20076;-62
2022/12/15 01:37:14;;;;;;;32.83;22.65;;;;;;;-7.19;100.00;158712.28;5050689;28;20043;-63
2022/12/15 01:42:23;;;;;;;33.80;23.98;;;;;;;-7.18;100.00;158714.88;5051149;28;20103;-62
2022/12/15 01:44:50;;;;;;;29.90;21.20;;;;;;;-7.12;100.00;158730.94;5052313;28;20044;-62
2022/12/15 01:47:18;;;;;;;29.20;21.73;;;;;;;-7.11;100.00;158732.25;5050301;28;20102;-62
2022/12/15 01:49:46;;;;;;;27.92;21.70;;;;;;;-7.11;100.00;158732.25;5051635;28;20155;-62
2022/12/15 01:52:13;;;;;;;32.42;22.08;;;;;;;-7.10;100.00;158736.22;5050394;28;20495;-61
2022/12/15 01:54:54;;;;;;;37.78;23.60;;;;;;;-7.11;100.00;158733.53;5051861;28;20087;-60
2022/12/15 01:57:25;;;;;;;37.58;24.27;;;;;;;-7.10;100.00;158736.22;5050759;28;20427;-60
2022/12/15 01:59:54;;;;;;;35.88;21.55;;;;;;;-7.05;100.00;158748.22;5051853;28;20079;-62
2022/12/15 02:02:24;;;;;;;33.92;22.73;;;;;;;-7.03;100.00;158754.88;5050154;28;20127;-62
2022/12/15 02:04:51;;;;;;;38.28;21.27;;;;;;;-7.01;100.00;158760.22;5052290;28;20052;-62
2022/12/15 02:07:17;;;;;;;27.70;19.73;;;;;;;-7.05;100.00;158748.22;5049880;28;20055;-62
2022/12/15 02:09:46;;;;;;;27.90;20.45;;;;;;;-7.14;100.00;158725.59;5051359;28;20024;-62
2022/12/15 02:12:25;;;;;;;27.35;21.63;;;;;;;-7.25;100.00;158696.22;5050030;28;20037;-63
2022/12/15 02:15:28;;;;;;;31.17;20.92;;;;;;;-7.35;100.00;158672.28;5051361;28;20025;-62
2022/12/15 02:18:06;;;;;;;29.70;21.48;;;;;;;-7.37;100.00;158666.94;5050026;28;20040;-62
2022/12/15 02:20:51;;;;;;;28.50;22.02;;;;;;;-7.41;100.00;158654.94;5045319;28;20018;-62
2022/12/15 02:23:50;;;;;;;28.92;21.58;;;;;;;-7.38;100.00;158664.28;5029827;28;20076;-60
2022/12/15 02:26:40;;;;;;;31.42;21.23;;;;;;;-7.35;100.00;158670.94;5029924;28;20037;-61
2022/12/15 02:29:07;;;;;;;28.77;21.20;;;;;;;-7.30;100.00;158682.94;5031695;28;20537;-60
2022/12/15 02:31:48;;;;;;;33.37;22.77;;;;;;;-7.29;100.00;158685.59;5029729;28;20117;-61
2022/12/15 02:34:22;;;;;;;31.52;20.67;;;;;;;-7.27;100.00;158692.25;5030980;28;20053;-61
2022/12/15 02:36:57;;;;;;;30.42;21.92;;;;;;;-7.30;100.00;158684.28;5029587;28;20041;-61
2022/12/15 02:39:22;;;;;;;34.58;22.88;;;;;;;-7.35;100.00;158670.94;5031706;28;20017;-60
2022/12/15 02:41:50;;;;;;;32.70;22.75;;;;;;;-7.31;100.00;158681.63;5029914;28;20076;-60
2022/12/15 02:44:25;;;;;;;30.70;22.98;;;;;;;-7.38;100.00;158664.28;5030933;28;20029;-61
2022/12/15 02:47:20;;;;;;;30.10;22.30;;;;;;;-7.34;100.00;158674.97;5030855;28;20531;-61
2022/12/15 02:50:10;;;;;;;28.40;21.98;;;;;;;-7.36;100.00;158669.63;5031116;28;20499;-62
2022/12/15 02:53:13;;;;;;;29.55;22.10;;;;;;;-7.40;100.00;158658.94;5029178;28;20037;-62
2022/12/15 02:56:00;;;;;;;31.67;20.15;;;;;;;-7.43;100.00;158650.97;5029463;28;20030;-62
2022/12/15 02:58:47;;;;;;;34.45;25.40;;;;;;;-7.45;100.00;158645.63;5031210;28;20037;-61
2022/12/15 03:01:27;;;;;;;36.25;21.92;;;;;;;-7.47;100.00;158640.28;5028978;28;20037;-61
2022/12/15 03:03:55;;;;;;;33.42;21.48;;;;;;;-7.43;100.00;158650.97;5030845;28;20104;-61
2022/12/15 03:06:23;;;;;;;32.13;24.08;;;;;;;-7.40;100.00;158657.63;5029614;28;20038;-61
2022/12/15 03:08:49;;;;;;;26.17;21.20;;;;;;;-7.38;100.00;158664.28;5030634;28;20029;-61
2022/12/15 03:11:14;;;;;;;34.28;21.98;;;;;;;-7.36;100.00;158669.63;5028836;28;20091;-61
2022/12/15 03:13:39;;;;;;;34.67;24.77;;;;;;;-7.38;100.00;158664.28;5047135;28;20028;-61
2022/12/15 03:16:05;;;;;;;36.83;21.35;;;;;;;-7.41;100.00;158656.25;5048672;28;20412;-62
2022/12/15 03:18:30;;;;;;;32.78;21.35;;;;;;;-7.40;100.00;158658.94;5050809;28;20024;-62
2022/12/15 03:20:55;;;;;;;35.72;22.02;;;;;;;-7.28;100.00;158688.28;5031095;28;20037;-62
2022/12/15 03:23:21;;;;;;;30.83;20.77;;;;;;;-7.24;100.00;158698.91;5050233;28;20032;-62
2022/12/15 03:25:47;;;;;;;37.97;25.13;;;;;;;-7.22;100.00;158704.25;5049449;28;20031;-61
2022/12/15 03:28:12;;;;;;;35.50;21.73;;;;;;;-7.18;100.00;158716.25;5050200;28;20033;-61
2022/12/15 03:30:38;;;;;;;35.55;21.25;;;;;;;-7.17;100.00;158717.56;5048602;28;20029;-61
2022/12/15 03:33:03;;;;;;;27.10;21.13;;;;;;;-7.16;100.00;158720.25;5050397;28;20025;-61
2022/12/15 03:35:29;;;;;;;33.75;21.98;;;;;;;-7.12;100.00;158729.56;5050623;28;20126;-62
2022/12/15 03:37:55;;;;;;;35.97;20.83;;;;;;;-7.11;100.00;158733.53;5048932;28;20060;-61
2022/12/15 03:40:20;;;;;;;24.42;19.23;;;;;;;-7.06;100.00;158746.91;5050231;28;20017;-61
2022/12/15 03:42:48;;;;;;;32.15;22.85;;;;;;;-7.06;100.00;158745.53;5048987;28;20376;-61
2022/12/15 03:45:19;;;;;;;29.03;21.37;;;;;;;-7.05;100.00;158749.59;5049837;28;20053;-61
2022/12/15 03:47:44;;;;;;;32.15;22.63;;;;;;;-7.04;100.00;158752.25;5048906;28;20045;-61
2022/12/15 03:50:11;;;;;;;26.05;21.10;;;;;;;-7.05;100.00;158748.22;5054269;28;20079;-61
2022/12/15 03:52:37;;;;;;;32.42;20.50;;;;;;;-7.10;100.00;158736.22;5067730;28;20047;-61
2022/12/15 03:55:03;;;;;;;31.08;20.00;;;;;;;-7.18;100.00;158714.88;5054133;28;20396;-62
2022/12/15 03:57:29;;;;;;;32.55;21.23;;;;;;;-7.19;100.00;158713.59;5052802;28;20051;-62
2022/12/15 03:59:54;;;;;;;32.78;21.38;;;;;;;-7.22;100.00;158705.56;5053760;28;20017;-62
2022/12/15 04:02:20;;;;;;;26.80;19.65;;;;;;;-7.20;100.00;158710.91;5052842;28;20036;-62
2022/12/15 04:04:45;;;;;;;33.97;21.27;;;;;;;-7.24;100.00;158700.28;5054401;28;20029;-62
2022/12/15 04:07:11;;;;;;;31.33;22.67;;;;;;;-7.26;100.00;158694.94;5052153;28;20405;-62
2022/12/15 04:09:36;;;;;;;31.80;19.85;;;;;;;-7.21;100.00;158706.91;5069281;28;20029;-62
2022/12/15 04:12:02;;;;;;;31.23;21.50;;;;;;;-7.20;100.00;158709.59;5052174;28;20041;-62
2022/12/15 04:14:28;;;;;;;27.10;18.60;;;;;;;-7.22;100.00;158704.25;5053901;28;20070;-62
2022/12/15 04:16:54;;;;;;;26.38;20.42;;;;;;;-7.25;100.00;158696.22;5052491;28;20065;-62
2022/12/15 04:22:03;;;;;;;33.90;21.25;;;;;;;-7.25;100.00;158696.22;5051865;28;20060;-62
2022/12/15 05:32:45;;;;;;;29.77;20.65;;;;;;;-7.96;100.00;158513.72;5043144;28;20404;-59
2022/12/15 05:35:10;;;;;;;30.67;22.77;;;;;;;-7.93;100.00;158520.41;5052022;28;20029;-59
2022/12/15 05:37:35;;;;;;;38.13;22.52;;;;;;;-8.00;100.00;158504.41;5031944;28;20406;-60
2022/12/15 05:40:01;;;;;;;39.17;22.85;;;;;;;-8.04;100.00;158493.75;5039086;28;20033;-59
2022/12/15 05:42:26;;;;;;;36.65;25.73;;;;;;;-8.00;100.00;158503.09;5031020;28;20562;-60
2022/12/15 05:44:51;;;;;;;34.78;22.90;;;;;;;-7.99;100.00;158507.06;5032310;28;20045;-59
2022/12/15 05:47:17;;;;;;;34.78;22.17;;;;;;;-7.94;100.00;158517.75;5030426;28;20045;-59
2022/12/15 05:49:42;;;;;;;35.80;22.73;;;;;;;-7.96;100.00;158513.72;5032050;28;20026;-59
2022/12/15 05:52:08;;;;;;;35.55;24.13;;;;;;;-7.94;100.00;158517.75;5030588;28;20038;-59
2022/12/15 05:54:33;;;;;;;33.80;24.95;;;;;;;-7.95;100.00;158516.38;5032552;28;20021;-59
2022/12/15 05:56:59;;;;;;;44.38;24.55;;;;;;;-7.97;100.00;158512.41;5030276;28;20099;-59
2022/12/15 05:59:24;;;;;;;35.42;23.27;;;;;;;-7.94;100.00;158517.75;5032519;28;20025;-60
2022/12/15 06:01:50;;;;;;;39.30;23.35;;;;;;;-7.94;100.00;158519.06;5030681;28;20052;-59
2022/12/15 06:04:15;;;;;;;38.15;23.20;;;;;;;-7.95;100.00;158515.06;5031568;28;20034;-60
2022/12/15 06:06:41;;;;;;;35.47;25.00;;;;;;;-7.93;100.00;158521.72;5030394;28;20033;-59
2022/12/15 06:09:07;;;;;;;32.92;24.27;;;;;;;-7.97;100.00;158512.41;5031775;28;20071;-59
2022/12/15 06:11:32;;;;;;;41.35;29.23;;;;;;;-7.93;100.00;158520.41;5029481;28;20460;-59
2022/12/15 06:13:57;;;;;;;58.08;40.47;;;;;;;-7.89;100.00;158532.38;5031300;28;20416;-59
2022/12/15 06:16:26;;;;;;;70.93;50.70;;;;;;;-7.93;100.00;158521.72;5030332;28;20038;-59
2022/12/15 06:18:53;;;;;;;;;;;;;;;-7.91;100.00;158527.06;5032554;28;20384;-59
2022/12/15 06:21:22;;;;;;;90.10;58.17;;;;;;;-7.91;100.00;158525.72;5030379;28;20121;-59
2022/12/15 06:23:48;;;;;;;96.50;61.83;;;;;;;-7.94;100.00;158517.75;5031694;28;20017;-59
2022/12/15 06:26:21;;;;;;;90.10;60.25;;;;;;;-7.92;100.00;158523.03;5029598;28;20052;-59
2022/12/15 06:28:48;;;;;;;86.45;56.40;;;;;;;-7.90;100.00;158528.38;5031789;28;20033;-59
2022/12/15 06:31:16;;;;;;;75.22;55.42;;;;;;;-7.91;100.00;158527.06;5029490;28;20037;-59
2022/12/15 06:33:42;;;;;;;83.00;54.40;;;;;;;-7.88;100.00;158535.03;5031461;28;20140;-59
2022/12/15 06:36:11;;;;;;;69.00;45.33;;;;;;;-7.90;100.00;158529.75;5029857;28;20135;-59
2022/12/15 06:38:36;;;;;;;60.13;43.38;;;;;;;-7.85;100.00;158541.69;5031491;28;20025;-59
2022/12/15 06:41:04;;;;;;;60.03;40.90;;;;;;;-7.85;100.00;158541.69;5029758;28;20044;-59
2022/12/15 06:43:32;;;;;;;50.83;35.60;;;;;;;-7.81;100.00;158552.38;5031262;28;20014;-59
2022/12/15 06:45:58;;;;;;;54.47;32.75;;;;;;;-7.78;100.00;158560.34;5029144;28;20095;-59
2022/12/15 06:48:24;;;;;;;46.45;32.95;;;;;;;-7.82;100.00;158549.69;5031214;28;20040;-59
2022/12/15 06:50:50;;;;;;;54.95;32.05;;;;;;;-7.81;100.00;158553.69;5029206;28;20029;-59
2022/12/15 06:53:16;;;;;;;44.80;30.65;;;;;;;-7.84;100.00;158544.34;5030904;28;20049;-59
2022/12/15 06:55:42;;;;;;;50.78;30.67;;;;;;;-7.88;100.00;158535.03;5029541;28;20025;-59
2022/12/15 06:58:08;;;;;;;45.00;30.90;;;;;;;-7.86;100.00;158539.06;5026993;28;20056;-59
2022/12/15 07:00:37;;;;;;;46.63;30.60;;;;;;;-7.90;100.00;158528.38;5030653;28;20029;-59
2022/12/15 07:03:06;;;;;;;40.88;26.67;;;;;;;-7.92;100.00;158523.03;5029275;28;20040;-59
2022/12/15 07:05:31;;;;;;;42.35;27.00;;;;;;;-7.85;100.00;158541.69;5030546;28;20036;-59
2022/12/15 07:07:56;;;;;;;40.45;28.05;;;;;;;-7.87;100.00;158536.41;5029210;28;20041;-59
2022/12/15 07:10:22;;;;;;;33.55;25.55;;;;;;;-7.85;100.00;158541.69;5030746;28;20025;-59
2022/12/15 07:12:47;;;;;;;37.38;27.85;;;;;;;-7.86;100.00;158539.06;5029034;28;20048;-60
2022/12/15 07:15:13;;;;;;;40.10;27.48;;;;;;;-7.88;100.00;158535.03;5030396;28;20025;-60
2022/12/15 07:17:39;;;;;;;37.38;29.83;;;;;;;-7.90;100.00;158528.38;5029091;28;20419;-59
2022/12/15 07:20:05;;;;;;;43.88;28.38;;;;;;;-7.92;100.00;158524.41;5029755;28;20025;-59
2022/12/15 07:22:30;;;;;;;42.15;25.63;;;;;;;-7.93;100.00;158520.41;5029215;28;20037;-59
2022/12/15 07:24:56;;;;;;;40.65;27.52;;;;;;;-7.94;100.00;158517.75;5030700;28;20029;-59
2022/12/15 07:27:21;;;;;;;43.88;26.80;;;;;;;-7.97;100.00;158511.09;5029001;28;20091;-59
2022/12/15 07:29:47;;;;;;;45.05;27.98;;;;;;;-8.00;100.00;158504.41;5030485;28;20076;-59
2022/12/15 07:32:12;;;;;;;42.28;27.33;;;;;;;-8.08;100.00;158483.13;5028960;28;20049;-59
2022/12/15 07:34:38;;;;;;;58.92;28.98;;;;;;;-8.12;100.00;158472.44;5030349;28;20040;-59
2022/12/15 07:37:03;;;;;;;45.97;28.20;;;;;;;-8.11;100.00;158475.13;5028913;28;20404;-59
2022/12/15 07:39:28;;;;;;;46.03;29.67;;;;;;;-8.10;100.00;158477.78;5030570;28;20037;-59
2022/12/15 07:41:54;;;;;;;36.47;28.48;;;;;;;-8.04;100.00;158493.75;5028723;28;20046;-59
2022/12/15 07:44:19;;;;;;;41.92;31.40;;;;;;;-8.00;100.00;158504.41;5030328;28;20057;-59
2022/12/15 07:46:47;;;;;;;51.63;31.17;;;;;;;-8.01;100.00;158501.78;5029274;28;20531;-59
2022/12/15 07:49:13;;;;;;;47.67;33.05;;;;;;;-7.97;100.00;158512.41;5029985;28;20064;-59
2022/12/15 07:51:40;;;;;;;44.80;31.75;;;;;;;-7.96;100.00;158513.72;5029039;28;20049;-59
2022/12/15 07:54:05;;;;;;;50.58;33.00;;;;;;;-7.90;100.00;158529.75;5030345;28;20026;-59
2022/12/15 07:56:30;;;;;;;39.75;31.77;;;;;;;-7.86;100.00;158540.38;5028835;28;20045;-59
2022/12/15 07:58:56;;;;;;;46.60;30.25;;;;;;;-7.84;100.00;158544.34;5030084;28;20029;-59
2022/12/15 08:01:21;;;;;;;49.28;35.03;;;;;;;-7.81;100.00;158553.69;5029130;28;20049;-59
2022/12/15 08:03:47;;;;;;;55.83;33.00;;;;;;;-7.72;100.00;158575.00;5030335;28;20018;-59
2022/12/15 08:06:14;;;;;;;48.55;35.10;;;;;;;-7.67;100.00;158589.66;5028699;28;20508;-59
2022/12/15 08:08:40;;;;;;;45.30;34.35;;;;;;;-7.62;100.00;158600.31;5030331;28;20419;-59
2022/12/15 08:11:09;;;;;;;50.13;33.42;;;;;;;-7.54;100.00;158621.63;5028156;28;20052;-59
2022/12/15 08:13:35;;;;;;;54.80;31.80;;;;;;;-7.48;100.00;158637.59;5030146;28;20129;-59
2022/12/15 08:16:01;;;;;;;59.55;33.55;;;;;;;-7.45;100.00;158645.63;5028643;28;20404;-59
2022/12/15 08:18:26;;;;;;;51.33;35.33;;;;;;;-7.38;100.00;158664.28;5029915;28;20028;-59
2022/12/15 08:20:52;;;;;;;48.15;37.00;;;;;;;-7.34;100.00;158674.97;5028922;28;20463;-59
2022/12/15 08:23:17;;;;;;;50.47;35.58;;;;;;;-7.27;100.00;158692.25;5029930;28;20036;-59
2022/12/15 08:25:42;;;;;;;53.83;37.85;;;;;;;-7.22;100.00;158704.25;5028664;28;20017;-59
2022/12/15 08:28:07;;;;;;;60.95;36.40;;;;;;;-7.17;100.00;158717.56;5029881;28;20017;-59
2022/12/15 08:30:33;;;;;;;45.35;35.03;;;;;;;-7.11;100.00;158733.53;5030020;28;20383;-59
2022/12/15 08:32:59;;;;;;;44.95;35.88;;;;;;;-7.11;100.00;158733.53;5027994;28;20046;-59
2022/12/15 08:35:24;;;;;;;56.50;37.05;;;;;;;-7.07;100.00;158742.88;5032703;28;20480;-59
2022/12/15 08:37:50;;;;;;;51.25;35.58;;;;;;;-6.98;100.00;158765.56;5032203;28;20042;-59
2022/12/15 08:40:15;;;;;;;57.30;39.05;;;;;;;-6.88;100.00;158792.19;5033463;28;20473;-59
2022/12/15 08:42:41;;;;;;;49.72;37.08;;;;;;;-6.80;100.00;158813.53;5032176;28;20662;-59
2022/12/15 08:45:07;;;;;;;62.80;42.78;;;;;;;-6.67;100.00;158845.56;5029215;28;20102;-59
2022/12/15 08:47:32;;;;;;;53.10;35.38;;;;;;;-6.57;100.00;158872.19;5031490;28;20479;-59
2022/12/15 08:49:57;;;;;;;62.17;39.75;;;;;;;-6.49;100.00;158893.53;5032321;28;20053;-59
2022/12/15 08:52:23;;;;;;;52.97;39.42;;;;;;;-6.37;100.00;158925.53;5030826;28;20075;-59
2022/12/15 08:54:49;;;;;;;63.40;39.40;;;;;;;-6.00;100.00;159018.94;5032705;28;20484;-59
2022/12/15 08:57:14;;;;;;;55.08;39.78;;;;;;;-5.47;100.00;159157.59;5013631;28;20038;-59
2022/12/15 08:59:40;;;;;;;46.38;34.50;;;;;;;-5.06;100.00;159263.03;5033323;28;20071;-59
2022/12/15 09:02:05;;;;;;;54.17;37.42;;;;;;;-4.96;100.00;159288.44;5031264;28;20132;-59
2022/12/15 09:04:31;;;;;;;49.45;36.00;;;;;;;-5.06;100.00;159261.72;5033264;28;20112;-59
2022/12/15 09:06:56;;;;;;;50.13;36.88;;;;;;;-5.03;100.00;159271.06;5031275;28;20052;-59
2022/12/15 09:09:22;;;;;;;45.85;33.33;;;;;;;-4.94;100.00;159293.75;5032812;28;20100;-59
2022/12/15 09:11:48;;;;;;;52.47;35.58;;;;;;;-4.62;100.00;159376.53;5031189;28;20041;-59
2022/12/15 09:14:13;;;;;;;52.05;37.78;;;;;;;-4.24;100.00;159475.38;5032831;28;20105;-59
2022/12/15 09:16:39;;;;;;;46.38;36.63;;;;;;;-4.00;100.00;159538.16;5031333;28;20056;-59
2022/12/15 09:19:04;;;;;;;56.80;37.78;;;;;;;-3.61;100.00;159638.38;5032597;28;20041;-59
2022/12/15 09:21:30;;;;;;;47.95;33.28;;;;;;;-3.41;100.00;159689.19;5031685;28;20646;-59
2022/12/15 09:24:01;;;;;;;50.22;35.08;;;;;;;-3.15;100.00;159757.38;5032539;28;20071;-58
2022/12/15 09:26:32;;;;;;;42.60;31.10;;;;;;;-2.78;100.00;159853.63;5031543;28;20041;-59
2022/12/15 09:28:58;;;;;;;46.03;35.35;;;;;;;-2.44;100.00;159941.88;5032629;28;20036;-60
2022/12/15 09:31:27;;;;;;;48.92;33.05;;;;;;;-2.20;100.00;160002.13;5030792;28;20045;-60
2022/12/15 09:33:54;;;;;;;46.15;32.28;;;;;;;-2.12;100.00;160024.84;5032493;28;20032;-60
2022/12/15 09:36:20;;;;;;;44.78;34.85;;;;;;;-1.88;100.00;160085.03;5031393;28;20052;-59
2022/12/15 09:38:45;;;;;;;42.60;31.63;;;;;;;-1.94;100.00;160071.66;5032082;28;20381;-59
2022/12/15 09:41:21;;;;;;;43.63;31.30;;;;;;;-1.90;100.00;160079.72;5030203;28;20048;-59
2022/12/15 09:44:05;;;;;;;42.65;33.05;;;;;;;-1.90;100.00;160081.03;5032863;28;20022;-59
2022/12/15 09:46:52;;;;;;;47.83;31.77;;;;;;;-1.87;100.00;160087.72;5029561;28;20049;-60
2022/12/15 09:49:17;;;;;;;62.70;34.83;;;;;;;-1.98;100.00;160061.00;5032055;28;20021;-59
2022/12/15 09:51:50;;;;;;;54.30;34.92;;;;;;;-2.14;100.00;160018.16;5030628;28;20175;-59
2022/12/15 09:54:15;;;;;;;45.13;32.92;;;;;;;-2.04;100.00;160044.88;5031448;28;20029;-59
2022/12/15 09:56:51;;;;;;;40.35;31.48;;;;;;;-1.93;100.00;160074.34;5030984;28;20515;-59
2022/12/15 09:59:55;;;;;;;45.08;29.98;;;;;;;-1.82;100.00;160101.09;5031947;28;20032;-59
2022/12/15 10:02:36;;;;;;;41.67;32.33;;;;;;;-1.68;100.00;160137.25;5030453;28;20046;-59
2022/12/15 10:05:16;;;;;;;43.00;32.42;;;;;;;-1.56;100.00;160169.34;5032266;28;20017;-59
2022/12/15 10:07:47;;;;;;;46.05;32.17;;;;;;;-1.50;100.00;160184.09;5030540;28;20042;-59
2022/12/15 10:10:18;;;;;;;40.47;33.35;;;;;;;-1.38;100.00;160214.88;5031192;28;20945;-59
2022/12/15 10:12:46;;;;;;;42.95;32.80;;;;;;;-1.25;100.00;160248.38;5030492;28;20538;-60
2022/12/15 10:15:27;;;;;;;35.03;30.50;;;;;;;-1.14;100.00;160277.78;5031927;28;20063;-59
2022/12/15 10:18:02;;;;;;;40.25;30.30;;;;;;;-1.28;100.00;160243.00;5030026;28;20128;-59
2022/12/15 10:20:30;;;;;;;45.88;33.83;;;;;;;-1.07;100.00;160295.22;5032179;28;20112;-59
2022/12/15 10:23:09;;;;;;;36.03;30.10;;;;;;;-1.10;100.00;160288.53;5030006;28;20131;-59
2022/12/15 10:25:34;;;;;;;41.95;31.83;;;;;;;-1.22;100.00;160257.72;5031572;28;20487;-59
2022/12/15 10:28:15;;;;;;;39.10;33.08;;;;;;;-1.15;100.00;160276.47;5029904;28;20041;-59
2022/12/15 10:31:04;;;;;;;49.90;32.50;;;;;;;-1.31;100.00;160235.00;5029757;28;20100;-59
2022/12/15 10:33:34;;;;;;;47.97;33.42;;;;;;;-1.54;100.00;160173.41;5028662;28;20383;-59
2022/12/15 10:36:00;;;;;;;44.00;31.02;;;;;;;-1.67;100.00;160141.25;5029778;28;20045;-59
2022/12/15 10:38:41;;;;;;;43.65;30.10;;;;;;;-1.99;100.00;160058.31;5030901;28;20022;-59
2022/12/15 10:41:10;;;;;;;49.08;33.10;;;;;;;-2.02;100.00;160050.25;5029404;28;20051;-59
2022/12/15 10:43:41;;;;;;;47.30;34.28;;;;;;;-1.99;100.00;160056.94;5031101;28;20021;-59
2022/12/15 10:46:19;;;;;;;44.80;33.13;;;;;;;-1.99;100.00;160056.94;5029025;28;20570;-59
2022/12/15 10:48:46;;;;;;;49.20;33.90;;;;;;;-2.10;100.00;160028.84;5030767;28;20029;-59
2022/12/15 10:51:23;;;;;;;41.67;34.80;;;;;;;-2.11;100.00;160026.16;5029528;28;20404;-59
2022/12/15 10:53:52;;;;;;;46.72;34.50;;;;;;;-2.20;100.00;160002.13;5030943;28;20112;-60
2022/12/15 10:56:24;;;;;;;50.78;37.13;;;;;;;-2.15;100.00;160016.78;5029645;28;20087;-60
2022/12/15 10:58:53;;;;;;;53.00;34.15;;;;;;;-2.09;100.00;160031.53;5030066;28;20029;-60
2022/12/15 11:01:22;;;;;;;45.60;32.97;;;;;;;-1.93;100.00;160074.34;5029389;28;20053;-60
2022/12/15 11:03:51;;;;;;;46.55;35.97;;;;;;;-1.78;100.00;160111.81;5031142;28;20634;-60
2022/12/15 11:06:35;;;;;;;48.40;38.38;;;;;;;-1.68;100.00;160137.25;5029388;28;20120;-60
2022/12/15 11:09:26;;;;;;;43.20;30.08;;;;;;;-1.68;100.00;160138.59;5030669;28;20030;-60
2022/12/15 11:14:51;;;;;;;46.80;36.38;;;;;;;-1.72;100.00;160127.88;5030933;28;20690;-60
2022/12/15 11:17:19;;;;;;;39.00;31.88;;;;;;;-1.77;100.00;160114.50;5029296;28;20081;-59
2022/12/15 11:19:57;;;;;;;49.65;33.45;;;;;;;-1.70;100.00;160131.88;5037396;28;20021;-59
2022/12/15 11:22:48;;;;;;;40.23;29.37;;;;;;;-1.68;100.00;160138.59;5048934;28;20385;-60
2022/12/15 11:25:21;;;;;;;48.58;35.75;;;;;;;-1.67;100.00;160141.25;5046501;28;20436;-60
2022/12/15 11:27:49;;;;;;;58.45;35.55;;;;;;;-1.62;100.00;160154.66;5029152;28;20496;-59
2022/12/15 11:30:16;;;;;;;40.47;33.10;;;;;;;-1.54;100.00;160173.41;5031217;28;20080;-60
2022/12/15 11:32:46;;;;;;;43.03;32.22;;;;;;;-1.48;100.00;160189.47;5029090;28;20049;-59
2022/12/15 11:35:13;;;;;;;44.05;32.30;;;;;;;-1.42;100.00;160205.50;5044100;28;20501;-59
2022/12/15 11:37:43;;;;;;;46.72;34.35;;;;;;;-1.31;100.00;160235.00;5039363;28;20048;-59
2022/12/15 11:40:26;;;;;;;46.08;34.65;;;;;;;-1.18;100.00;160268.41;5050542;28;20021;-59
2022/12/15 11:42:51;;;;;;;42.65;34.20;;;;;;;-1.10;100.00;160288.53;5048870;28;20037;-59
2022/12/15 11:45:31;;;;;;;46.05;35.85;;;;;;;-0.97;100.00;160323.34;5049849;28;20135;-59
2022/12/15 11:48:17;;;;;;;42.95;34.72;;;;;;;-0.84;100.00;160355.47;5048514;28;20040;-59
2022/12/15 11:51:04;;;;;;;40.53;34.00;;;;;;;-0.79;100.00;160368.88;5049021;28;20036;-59
2022/12/15 11:54:08;;;;;;;45.78;35.72;;;;;;;-0.72;100.00;160387.63;5049962;28;20615;-59
2022/12/15 11:57:11;;;;;;;41.65;32.67;;;;;;;-0.71;100.00;160390.28;4994443;28;20089;-59
2022/12/15 12:00:02;;;;;;;45.75;35.08;;;;;;;-0.68;100.00;160397.00;5050473;28;20553;-59
2022/12/15 12:02:55;;;;;;;42.88;33.00;;;;;;;-0.73;100.00;160384.94;5048918;28;20044;-59
2022/12/15 12:05:51;;;;;;;45.88;36.10;;;;;;;-0.63;100.00;160409.06;5050344;28;20059;-59
2022/12/15 12:08:44;;;;;;;47.17;34.38;;;;;;;-0.52;100.00;160439.84;5048331;28;20041;-58
2022/12/15 12:11:19;;;;;;;47.40;34.38;;;;;;;-0.47;100.00;160451.91;5052355;28;20056;-58
2022/12/15 12:13:52;;;;;;;40.13;32.08;;;;;;;-0.42;100.00;160465.34;5054107;28;20025;-58
2022/12/15 12:16:45;;;;;;;45.25;34.50;;;;;;;-0.38;100.00;160474.72;5052060;28;20037;-58
2022/12/15 12:19:36;;;;;;;50.75;34.90;;;;;;;-0.28;100.00;160500.16;5053795;28;20037;-58
2022/12/15 12:22:10;;;;;;;62.55;31.50;;;;;;;-0.24;100.00;160510.84;5052092;28;20037;-58
2022/12/15 12:24:43;;;;;;;38.90;30.83;;;;;;;-0.17;100.00;160530.97;5054325;28;20361;-57
2022/12/15 12:27:34;;;;;;;48.30;33.15;;;;;;;-0.09;100.00;160549.72;5052145;28;20036;-59
2022/12/15 12:30:08;;;;;;;41.55;28.42;;;;;;;-0.01;100.00;160571.19;5053194;28;20033;-58
2022/12/15 12:32:55;;;;;;;39.75;29.75;;;;;;;-0.06;100.00;160559.13;5052020;28;20032;-58
2022/12/15 12:35:29;;;;;;;47.00;32.47;;;;;;;-0.06;100.00;160559.13;5053665;28;20051;-58
2022/12/15 12:38:01;;;;;;;41.50;33.33;;;;;;;-0.04;100.00;160563.13;5051612;28;20048;-59
2022/12/15 12:41:01;;;;;;;50.15;34.50;;;;;;;0.01;100.00;160575.19;5053513;28;20388;-59
2022/12/15 12:43:38;;;;;;;46.30;30.20;;;;;;;0.03;100.00;160580.56;5052101;28;20412;-59
2022/12/15 12:46:09;;;;;;;40.00;30.20;;;;;;;-0.05;100.00;160561.81;5051555;28;20132;-59
2022/12/15 12:48:40;;;;;;;48.20;32.70;;;;;;;-0.11;100.00;160545.69;5053320;28;20025;-59
2022/12/15 12:51:21;;;;;;;50.30;33.47;;;;;;;-0.11;100.00;160545.69;5038542;28;20103;-58
2022/12/15 12:53:46;;;;;;;45.80;32.42;;;;;;;-0.08;100.00;160552.41;5033393;28;20037;-59
2022/12/15 12:56:32;;;;;;;43.20;32.50;;;;;;;-0.06;100.00;160559.13;5031399;28;20042;-58
2022/12/15 12:58:57;;;;;;;38.63;30.02;;;;;;;0.02;100.00;160577.88;5032356;28;20025;-59
2022/12/15 13:01:29;;;;;;;38.33;29.70;;;;;;;0.10;100.00;160599.31;5031762;28;20429;-58
2022/12/15 13:04:10;;;;;;;44.92;30.05;;;;;;;0.14;100.00;160611.38;5032970;28;20025;-59
2022/12/15 13:06:39;;;;;;;50.50;32.03;;;;;;;0.12;100.00;160604.66;5031448;28;20060;-59
2022/12/15 13:09:16;;;;;;;48.83;33.90;;;;;;;-0.05;100.00;160561.81;5032906;28;20108;-59
2022/12/15 13:11:44;;;;;;;48.15;37.10;;;;;;;-0.09;100.00;160551.06;5031504;28;20048;-58
2022/12/15 13:14:31;;;;;;;33.25;26.13;;;;;;;-0.14;100.00;160536.28;5032133;28;20032;-58
2022/12/15 13:17:20;;;;;;;47.03;28.95;;;;;;;-0.24;100.00;160510.84;5031042;28;20044;-59
2022/12/15 13:19:58;;;;;;;48.42;32.83;;;;;;;-0.32;100.00;160492.09;5032551;28;20021;-58
2022/12/15 13:22:33;;;;;;;47.88;31.67;;;;;;;-0.39;100.00;160473.34;5031030;28;20171;-58
2022/12/15 13:24:59;;;;;;;47.53;35.25;;;;;;;-0.40;100.00;160470.66;5032475;28;20025;-58
2022/12/15 13:27:35;;;;;;;48.05;36.67;;;;;;;-0.45;100.00;160455.97;5031564;28;20045;-59
2022/12/15 13:30:06;;;;;;;52.58;35.08;;;;;;;-0.59;100.00;160421.09;5032278;28;20026;-58
2022/12/15 13:32:35;;;;;;;46.00;33.67;;;;;;;-0.53;100.00;160435.84;5031100;28;20064;-58
2022/12/15 13:35:13;;;;;;;45.20;32.10;;;;;;;-0.50;100.00;160443.91;5032332;28;20033;-58
2022/12/15 13:37:51;;;;;;;43.22;33.67;;;;;;;-0.53;100.00;160435.84;5030960;28;20046;-59
2022/12/15 13:40:51;;;;;;;46.67;33.97;;;;;;;-0.54;100.00;160434.50;5032589;28;20021;-58
2022/12/15 13:43:25;;;;;;;41.08;32.83;;;;;;;-0.51;100.00;160441.22;5030700;28;20041;-58
2022/12/15 13:45:54;;;;;;;43.65;34.08;;;;;;;-0.47;100.00;160450.59;5030689;28;20055;-58